AGR9201 EPMO-EPBY
Flight info
| Callsign | AGR9201 |
|---|---|
| Flight time | N/A |
| Altitude | 18000 |
| Route | OLILA L621 SOMOR Z96 INTUN |
| Aircraft | E145/M-SDE2E3FGJ1RWYZ/HB1 |
Departure
| Time | 2026-04-25 09:45 |
|---|---|
| Airport | Warsaw Modlin Airport (EPMO) |
Arrival
| Time | N/A |
|---|---|
| Airport | Ignacy Jan Paderewski Bydgoszcz Airport (EPBY) |
| Time | Latitude | Longitude | Altitude | Speed | Heading |
|---|---|---|---|---|---|
| 2026-04-25 09:23 | 52.44796 | 20.65819 | 337 ft | 0 kts | 37° |
| 2026-04-25 09:41 | 52.44812 | 20.65838 | 336 ft | 7 kts | 37° |
| 2026-04-25 09:41 | 52.44848 | 20.65897 | 336 ft | 8 kts | 70° |
| 2026-04-25 09:41 | 52.44860 | 20.66005 | 336 ft | 11 kts | 81° |
| 2026-04-25 09:42 | 52.44875 | 20.66154 | 336 ft | 15 kts | 82° |
| 2026-04-25 09:42 | 52.44895 | 20.66370 | 336 ft | 22 kts | 82° |
| 2026-04-25 09:42 | 52.44920 | 20.66650 | 336 ft | 26 kts | 82° |
| 2026-04-25 09:42 | 52.44946 | 20.66923 | 335 ft | 19 kts | 81° |
| 2026-04-25 09:43 | 52.44978 | 20.67061 | 335 ft | 10 kts | 31° |
| 2026-04-25 09:43 | 52.45059 | 20.67058 | 334 ft | 13 kts | 352° |
| 2026-04-25 09:43 | 52.45159 | 20.67035 | 333 ft | 15 kts | 352° |
| 2026-04-25 09:43 | 52.45268 | 20.66979 | 333 ft | 9 kts | 335° |
| 2026-04-25 09:44 | 52.45286 | 20.66927 | 333 ft | 8 kts | 262° |
| 2026-04-25 09:44 | 52.45284 | 20.66897 | 333 ft | 0 kts | 262° |
| 2026-04-25 09:44 | 52.45275 | 20.66802 | 333 ft | 34 kts | 261° |
| 2026-04-25 09:44 | 52.45196 | 20.65952 | 334 ft | 109 kts | 261° |
| 2026-04-25 09:45 | 52.45080 | 20.64583 | 721 ft | 127 kts | 260° |
| 2026-04-25 09:45 | 52.44962 | 20.63177 | 1500 ft | 124 kts | 261° |
| 2026-04-25 09:45 | 52.44830 | 20.61866 | 2282 ft | 117 kts | 261° |
| 2026-04-25 09:45 | 52.44702 | 20.60556 | 2951 ft | 118 kts | 263° |
| 2026-04-25 09:46 | 52.44571 | 20.59205 | 3564 ft | 123 kts | 263° |
| 2026-04-25 09:46 | 52.44424 | 20.57669 | 3936 ft | 151 kts | 263° |
| 2026-04-25 09:46 | 52.44245 | 20.55818 | 4373 ft | 178 kts | 263° |
| 2026-04-25 09:46 | 52.44385 | 20.53760 | 5036 ft | 191 kts | 298° |
| 2026-04-25 09:47 | 52.45426 | 20.52216 | 5507 ft | 223 kts | 333° |
| 2026-04-25 09:47 | 52.47053 | 20.52000 | 6251 ft | 245 kts | 1° |
| 2026-04-25 09:47 | 52.48732 | 20.52100 | 7262 ft | 239 kts | 352° |
| 2026-04-25 09:47 | 52.50381 | 20.52004 | 8158 ft | 240 kts | 351° |
| 2026-04-25 09:48 | 52.52056 | 20.51868 | 9035 ft | 242 kts | 351° |
| 2026-04-25 09:48 | 52.53763 | 20.51722 | 9836 ft | 248 kts | 350° |
| 2026-04-25 09:48 | 52.55556 | 20.51554 | 10225 ft | 268 kts | 351° |
| 2026-04-25 09:48 | 52.57513 | 20.51377 | 10619 ft | 287 kts | 351° |
| 2026-04-25 09:49 | 52.59564 | 20.51195 | 11192 ft | 297 kts | 351° |
| 2026-04-25 09:49 | 52.61612 | 20.50860 | 11938 ft | 297 kts | 345° |
| 2026-04-25 09:49 | 52.63656 | 20.50326 | 12744 ft | 297 kts | 346° |
| 2026-04-25 09:49 | 52.65725 | 20.49759 | 13438 ft | 298 kts | 341° |
| 2026-04-25 09:50 | 52.67515 | 20.48254 | 14090 ft | 291 kts | 316° |
| 2026-04-25 09:50 | 52.68700 | 20.45573 | 14724 ft | 293 kts | 293° |
| 2026-04-25 09:50 | 52.69196 | 20.42310 | 15350 ft | 297 kts | 284° |
| 2026-04-25 09:50 | 52.69640 | 20.38969 | 15918 ft | 303 kts | 284° |
| 2026-04-25 09:51 | 52.70092 | 20.35531 | 16416 ft | 310 kts | 284° |
| 2026-04-25 09:51 | 52.70846 | 20.32180 | 16792 ft | 310 kts | 301° |
| 2026-04-25 09:51 | 52.72253 | 20.29494 | 17052 ft | 310 kts | 311° |
| 2026-04-25 09:51 | 52.73714 | 20.26826 | 17304 ft | 311 kts | 310° |
| 2026-04-25 09:52 | 52.75145 | 20.24197 | 17551 ft | 312 kts | 310° |
| 2026-04-25 09:52 | 52.76597 | 20.21521 | 17770 ft | 314 kts | 310° |
| 2026-04-25 09:52 | 52.78066 | 20.18814 | 17804 ft | 317 kts | 310° |
| 2026-04-25 09:52 | 52.79537 | 20.16097 | 17802 ft | 317 kts | 310° |
| 2026-04-25 09:53 | 52.81014 | 20.13361 | 17797 ft | 318 kts | 309° |
| 2026-04-25 09:53 | 52.82416 | 20.10598 | 17795 ft | 317 kts | 308° |
| 2026-04-25 09:53 | 52.83819 | 20.07824 | 17787 ft | 315 kts | 308° |
| 2026-04-25 09:53 | 52.85227 | 20.05036 | 17782 ft | 313 kts | 308° |
| 2026-04-25 09:54 | 52.86613 | 20.02289 | 17785 ft | 311 kts | 308° |
| 2026-04-25 09:54 | 52.87996 | 19.99544 | 17784 ft | 310 kts | 308° |
| 2026-04-25 09:54 | 52.89383 | 19.96787 | 17783 ft | 308 kts | 308° |
| 2026-04-25 09:54 | 52.90736 | 19.94098 | 17781 ft | 308 kts | 308° |
| 2026-04-25 09:55 | 52.92109 | 19.91362 | 17786 ft | 307 kts | 308° |
| 2026-04-25 09:55 | 52.93469 | 19.88652 | 17795 ft | 308 kts | 308° |
| 2026-04-25 09:55 | 52.94844 | 19.85909 | 17791 ft | 309 kts | 308° |
| 2026-04-25 09:55 | 52.96222 | 19.83157 | 17788 ft | 310 kts | 308° |
| 2026-04-25 09:56 | 52.97591 | 19.80417 | 17785 ft | 311 kts | 308° |
| 2026-04-25 09:56 | 52.98975 | 19.77648 | 17782 ft | 312 kts | 308° |
| 2026-04-25 09:56 | 53.00381 | 19.74830 | 17787 ft | 313 kts | 308° |
| 2026-04-25 09:56 | 53.01767 | 19.72049 | 17782 ft | 314 kts | 308° |
| 2026-04-25 09:57 | 53.03149 | 19.69273 | 17791 ft | 314 kts | 308° |
| 2026-04-25 09:57 | 53.04545 | 19.66466 | 17777 ft | 315 kts | 308° |
| 2026-04-25 09:57 | 53.05948 | 19.63643 | 17776 ft | 315 kts | 308° |
| 2026-04-25 09:57 | 53.07480 | 19.60968 | 17780 ft | 316 kts | 313° |
| 2026-04-25 09:58 | 53.09012 | 19.58376 | 17782 ft | 316 kts | 312° |
| 2026-04-25 09:58 | 53.10558 | 19.55751 | 17779 ft | 316 kts | 312° |
| 2026-04-25 09:58 | 53.12092 | 19.53141 | 17784 ft | 316 kts | 312° |
| 2026-04-25 09:58 | 53.13640 | 19.50502 | 17790 ft | 316 kts | 312° |
| 2026-04-25 09:59 | 53.15186 | 19.47863 | 17791 ft | 316 kts | 312° |
| 2026-04-25 09:59 | 53.16716 | 19.45250 | 17792 ft | 316 kts | 312° |
| 2026-04-25 09:59 | 53.18266 | 19.42598 | 17793 ft | 316 kts | 312° |
| 2026-04-25 09:59 | 53.19823 | 19.39930 | 17785 ft | 317 kts | 312° |
| 2026-04-25 10:00 | 53.21337 | 19.37252 | 17775 ft | 315 kts | 307° |
| 2026-04-25 10:00 | 53.22264 | 19.34048 | 17591 ft | 307 kts | 284° |
| 2026-04-25 10:00 | 53.22279 | 19.30508 | 17346 ft | 305 kts | 265° |
| 2026-04-25 10:00 | 53.21957 | 19.26986 | 16847 ft | 306 kts | 265° |
| 2026-04-25 10:01 | 53.21640 | 19.23498 | 16255 ft | 305 kts | 265° |
| 2026-04-25 10:01 | 53.21320 | 19.20011 | 15625 ft | 299 kts | 265° |
| 2026-04-25 10:01 | 53.21006 | 19.16590 | 14956 ft | 295 kts | 266° |
| 2026-04-25 10:01 | 53.20701 | 19.13214 | 14258 ft | 292 kts | 266° |
| 2026-04-25 10:02 | 53.20400 | 19.09895 | 13571 ft | 289 kts | 266° |
| 2026-04-25 10:02 | 53.20097 | 19.06561 | 12878 ft | 287 kts | 265° |
| 2026-04-25 10:02 | 53.19792 | 19.03233 | 12220 ft | 283 kts | 266° |
| 2026-04-25 10:02 | 53.19498 | 19.00031 | 11724 ft | 275 kts | 266° |
| 2026-04-25 10:03 | 53.19206 | 18.96858 | 11215 ft | 269 kts | 266° |
| 2026-04-25 10:03 | 53.18930 | 18.93807 | 10712 ft | 264 kts | 266° |
| 2026-04-25 10:03 | 53.18663 | 18.90834 | 10415 ft | 252 kts | 266° |
| 2026-04-25 10:03 | 53.18411 | 18.88025 | 10247 ft | 238 kts | 266° |
| 2026-04-25 10:04 | 53.18168 | 18.85338 | 10109 ft | 225 kts | 266° |
| 2026-04-25 10:04 | 53.17940 | 18.82812 | 10025 ft | 214 kts | 267° |
| 2026-04-25 10:04 | 53.17719 | 18.80344 | 9956 ft | 213 kts | 266° |
| 2026-04-25 10:04 | 53.17498 | 18.77912 | 9873 ft | 209 kts | 267° |
| 2026-04-25 10:05 | 53.17280 | 18.75499 | 9808 ft | 208 kts | 267° |
| 2026-04-25 10:05 | 53.17062 | 18.73097 | 9807 ft | 209 kts | 267° |
| 2026-04-25 10:05 | 53.16843 | 18.70694 | 9816 ft | 209 kts | 267° |
| 2026-04-25 10:05 | 53.16827 | 18.68324 | 9626 ft | 200 kts | 281° |
| 2026-04-25 10:06 | 53.16996 | 18.65993 | 9199 ft | 204 kts | 280° |
| 2026-04-25 10:06 | 53.17157 | 18.63615 | 8845 ft | 204 kts | 280° |
| 2026-04-25 10:06 | 53.17315 | 18.61252 | 8547 ft | 202 kts | 280° |
| 2026-04-25 10:06 | 53.17472 | 18.58900 | 8229 ft | 201 kts | 280° |
| 2026-04-25 10:07 | 53.17626 | 18.56584 | 7895 ft | 202 kts | 280° |
| 2026-04-25 10:07 | 53.17780 | 18.54254 | 7576 ft | 201 kts | 280° |
| 2026-04-25 10:07 | 53.17935 | 18.51916 | 7260 ft | 200 kts | 280° |
| 2026-04-25 10:07 | 53.18086 | 18.49623 | 6971 ft | 199 kts | 280° |
| 2026-04-25 10:08 | 53.18236 | 18.47340 | 6650 ft | 199 kts | 280° |
| 2026-04-25 10:08 | 53.18389 | 18.45009 | 6341 ft | 198 kts | 280° |
| 2026-04-25 10:08 | 53.18537 | 18.42730 | 6050 ft | 197 kts | 279° |
| 2026-04-25 10:08 | 53.18294 | 18.40448 | 5742 ft | 207 kts | 247° |
| 2026-04-25 10:09 | 53.17382 | 18.38535 | 5446 ft | 212 kts | 238° |
| 2026-04-25 10:09 | 53.16444 | 18.36629 | 5179 ft | 210 kts | 238° |
| 2026-04-25 10:09 | 53.15522 | 18.34742 | 4904 ft | 208 kts | 238° |
| 2026-04-25 10:09 | 53.14620 | 18.32879 | 4623 ft | 204 kts | 237° |
| 2026-04-25 10:10 | 53.13742 | 18.31051 | 4251 ft | 204 kts | 238° |
| 2026-04-25 10:10 | 53.12857 | 18.29181 | 3890 ft | 201 kts | 239° |
| 2026-04-25 10:10 | 53.12321 | 18.27149 | 3616 ft | 186 kts | 258° |
| 2026-04-25 10:10 | 53.12029 | 18.25103 | 3358 ft | 178 kts | 262° |
| 2026-04-25 10:11 | 53.11812 | 18.23096 | 3107 ft | 172 kts | 263° |
| 2026-04-25 10:11 | 53.11632 | 18.21159 | 2867 ft | 166 kts | 264° |
| 2026-04-25 10:11 | 53.11470 | 18.19284 | 2635 ft | 163 kts | 265° |
| 2026-04-25 10:11 | 53.11314 | 18.17413 | 2412 ft | 162 kts | 265° |
| 2026-04-25 10:12 | 53.11160 | 18.15554 | 2185 ft | 160 kts | 265° |
| 2026-04-25 10:12 | 53.11010 | 18.13745 | 1990 ft | 147 kts | 265° |
| 2026-04-25 10:12 | 53.10767 | 18.10803 | 1601 ft | 121 kts | 266° |
| 2026-04-25 10:13 | 53.10656 | 18.09474 | 1439 ft | 112 kts | 266° |
| 2026-04-25 10:13 | 53.10552 | 18.08205 | 1294 ft | 111 kts | 266° |
| 2026-04-25 10:13 | 53.10446 | 18.06931 | 1142 ft | 114 kts | 266° |
| 2026-04-25 10:13 | 53.10335 | 18.05592 | 995 ft | 115 kts | 265° |
| 2026-04-25 10:14 | 53.10226 | 18.04293 | 835 ft | 116 kts | 265° |
| 2026-04-25 10:14 | 53.10113 | 18.02942 | 676 ft | 118 kts | 265° |
| 2026-04-25 10:14 | 53.10001 | 18.01597 | 517 ft | 119 kts | 265° |
| 2026-04-25 10:14 | 53.09886 | 18.00208 | 502 ft | 129 kts | 264° |
| 2026-04-25 10:15 | 53.09757 | 17.98678 | 1194 ft | 138 kts | 264° |
| 2026-04-25 10:15 | 53.09621 | 17.97118 | 1881 ft | 156 kts | 265° |
| 2026-04-25 10:15 | 53.09454 | 17.95125 | 2233 ft | 187 kts | 264° |
| 2026-04-25 10:15 | 53.09263 | 17.92867 | 2507 ft | 204 kts | 264° |
| 2026-04-25 10:16 | 53.09065 | 17.90523 | 2763 ft | 203 kts | 265° |
| 2026-04-25 10:16 | 53.08869 | 17.88207 | 2943 ft | 201 kts | 265° |
| 2026-04-25 10:16 | 53.08424 | 17.86013 | 2954 ft | 209 kts | 238° |
| 2026-04-25 10:16 | 53.07195 | 17.84632 | 2965 ft | 224 kts | 201° |
| 2026-04-25 10:17 | 53.05585 | 17.84744 | 2966 ft | 238 kts | 170° |
| 2026-04-25 10:17 | 53.03952 | 17.85299 | 2954 ft | 237 kts | 174° |
| 2026-04-25 10:17 | 53.02323 | 17.85974 | 2952 ft | 239 kts | 169° |
| 2026-04-25 10:17 | 53.00897 | 17.87490 | 2969 ft | 248 kts | 133° |
| 2026-04-25 10:18 | 53.00077 | 17.90076 | 2979 ft | 251 kts | 113° |
| 2026-04-25 10:18 | 52.99616 | 17.92854 | 2966 ft | 251 kts | 92° |
| 2026-04-25 10:18 | 52.99670 | 17.95751 | 2966 ft | 246 kts | 83° |
| 2026-04-25 10:18 | 52.99852 | 17.98624 | 2963 ft | 246 kts | 81° |
| 2026-04-25 10:19 | 53.00063 | 18.01453 | 2965 ft | 245 kts | 80° |
| 2026-04-25 10:19 | 53.00267 | 18.04173 | 2966 ft | 229 kts | 80° |
| 2026-04-25 10:19 | 53.00763 | 18.06595 | 2677 ft | 214 kts | 46° |
| 2026-04-25 10:19 | 53.01907 | 18.07884 | 2420 ft | 188 kts | 4° |
| 2026-04-25 10:20 | 53.03140 | 18.07934 | 2179 ft | 174 kts | 343° |
| 2026-04-25 10:20 | 53.04333 | 18.07610 | 1953 ft | 170 kts | 342° |
| 2026-04-25 10:20 | 53.05487 | 18.07252 | 1711 ft | 168 kts | 340° |
| 2026-04-25 10:20 | 53.06596 | 18.06834 | 1490 ft | 150 kts | 338° |
| 2026-04-25 10:21 | 53.07524 | 18.06465 | 1260 ft | 136 kts | 338° |
| 2026-04-25 10:21 | 53.08398 | 18.05909 | 1102 ft | 128 kts | 321° |
| 2026-04-25 10:21 | 53.09020 | 18.04939 | 1006 ft | 113 kts | 303° |
| 2026-04-25 10:21 | 53.09421 | 18.03838 | 809 ft | 117 kts | 297° |
| 2026-04-25 10:22 | 53.09789 | 18.02619 | 624 ft | 116 kts | 291° |
| 2026-04-25 10:22 | 53.09938 | 18.01313 | 483 ft | 117 kts | 272° |
| 2026-04-25 10:22 | 53.09862 | 17.99956 | 330 ft | 120 kts | 265° |
| 2026-04-25 10:22 | 53.09737 | 17.98468 | 693 ft | 137 kts | 265° |
| 2026-04-25 10:23 | 53.09628 | 17.96915 | 1453 ft | 144 kts | 266° |
| 2026-04-25 10:23 | 53.09460 | 17.95027 | 1822 ft | 181 kts | 264° |
| 2026-04-25 10:23 | 53.09288 | 17.92813 | 2215 ft | 211 kts | 265° |
| 2026-04-25 10:23 | 53.09023 | 17.90279 | 2485 ft | 227 kts | 262° |
| 2026-04-25 10:24 | 53.08720 | 17.87748 | 2718 ft | 220 kts | 255° |
| 2026-04-25 10:24 | 53.07850 | 17.85762 | 2934 ft | 219 kts | 220° |
| 2026-04-25 10:24 | 53.06346 | 17.85008 | 2973 ft | 232 kts | 184° |
| 2026-04-25 10:24 | 53.04767 | 17.85929 | 2977 ft | 245 kts | 147° |
| 2026-04-25 10:25 | 53.03727 | 17.88187 | 2984 ft | 250 kts | 117° |
| 2026-04-25 10:25 | 53.03007 | 17.90914 | 2968 ft | 252 kts | 106° |
| 2026-04-25 10:25 | 53.02766 | 17.93791 | 2977 ft | 247 kts | 92° |
| 2026-04-25 10:25 | 53.02817 | 17.96621 | 2973 ft | 241 kts | 81° |
| 2026-04-25 10:26 | 53.02972 | 17.99344 | 2828 ft | 230 kts | 82° |
| 2026-04-25 10:26 | 53.03113 | 18.01970 | 2560 ft | 224 kts | 83° |
| 2026-04-25 10:26 | 53.03248 | 18.04517 | 2299 ft | 218 kts | 82° |
| 2026-04-25 10:26 | 53.03443 | 18.07014 | 2028 ft | 212 kts | 68° |
| 2026-04-25 10:27 | 53.04273 | 18.08818 | 1882 ft | 185 kts | 23° |
| 2026-04-25 10:27 | 53.05420 | 18.09165 | 1754 ft | 160 kts | 341° |
| 2026-04-25 10:27 | 53.06497 | 18.08794 | 1637 ft | 157 kts | 342° |
| 2026-04-25 10:27 | 53.07558 | 18.08462 | 1465 ft | 157 kts | 341° |
| 2026-04-25 10:28 | 53.08620 | 18.08068 | 1445 ft | 147 kts | 339° |
| 2026-04-25 10:28 | 53.09436 | 18.07361 | 1367 ft | 127 kts | 306° |
| 2026-04-25 10:28 | 53.09859 | 18.06128 | 1147 ft | 121 kts | 295° |
| 2026-04-25 10:28 | 53.10125 | 18.04864 | 909 ft | 117 kts | 281° |
| 2026-04-25 10:29 | 53.10145 | 18.03494 | 708 ft | 120 kts | 269° |
| 2026-04-25 10:29 | 53.10037 | 18.02111 | 561 ft | 120 kts | 264° |
| 2026-04-25 10:29 | 53.09929 | 18.00720 | 421 ft | 121 kts | 265° |
| 2026-04-25 10:29 | 53.09814 | 17.99376 | 263 ft | 117 kts | 266° |
| 2026-04-25 10:30 | 53.09711 | 17.98124 | 239 ft | 113 kts | 263° |
| 2026-04-25 10:30 | 53.09578 | 17.96644 | 682 ft | 137 kts | 266° |
| 2026-04-25 10:30 | 53.09467 | 17.95175 | 1712 ft | 127 kts | 266° |
| 2026-04-25 10:30 | 53.09330 | 17.93548 | 2069 ft | 164 kts | 265° |
| 2026-04-25 10:31 | 53.09146 | 17.91424 | 2389 ft | 205 kts | 265° |
| 2026-04-25 10:31 | 53.08933 | 17.88943 | 2665 ft | 218 kts | 264° |
| 2026-04-25 10:31 | 53.08545 | 17.86587 | 2888 ft | 214 kts | 245° |
| 2026-04-25 10:31 | 53.07428 | 17.84909 | 2968 ft | 226 kts | 210° |
| 2026-04-25 10:32 | 53.05822 | 17.84639 | 2973 ft | 240 kts | 173° |
| 2026-04-25 10:32 | 53.04326 | 17.86012 | 2976 ft | 253 kts | 137° |
| 2026-04-25 10:32 | 53.03440 | 17.88548 | 2980 ft | 259 kts | 106° |
| 2026-04-25 10:32 | 53.03169 | 17.91541 | 2980 ft | 261 kts | 93° |
| 2026-04-25 10:33 | 53.03058 | 17.94637 | 2975 ft | 262 kts | 91° |
| 2026-04-25 10:33 | 53.02985 | 17.97692 | 2973 ft | 261 kts | 90° |
| 2026-04-25 10:33 | 53.02922 | 18.00692 | 2968 ft | 258 kts | 90° |
| 2026-04-25 10:33 | 53.02860 | 18.03666 | 2966 ft | 252 kts | 90° |
| 2026-04-25 10:34 | 53.02800 | 18.06572 | 2969 ft | 250 kts | 90° |
| 2026-04-25 10:34 | 53.02738 | 18.09510 | 2966 ft | 250 kts | 90° |
| 2026-04-25 10:34 | 53.02676 | 18.12419 | 2966 ft | 250 kts | 90° |
| 2026-04-25 10:34 | 53.02614 | 18.15292 | 2972 ft | 250 kts | 90° |
| 2026-04-25 10:35 | 53.02550 | 18.18231 | 2967 ft | 251 kts | 90° |
| 2026-04-25 10:35 | 53.02486 | 18.21134 | 2965 ft | 252 kts | 90° |
| 2026-04-25 10:35 | 53.02425 | 18.24070 | 2961 ft | 253 kts | 89° |
| 2026-04-25 10:35 | 53.02840 | 18.26820 | 2963 ft | 239 kts | 53° |
| 2026-04-25 10:36 | 53.04042 | 18.28597 | 2974 ft | 226 kts | 17° |
| 2026-04-25 10:36 | 53.05530 | 18.29084 | 2966 ft | 217 kts | 353° |
| 2026-04-25 10:36 | 53.07025 | 18.28973 | 2955 ft | 211 kts | 348° |
| 2026-04-25 10:36 | 53.08488 | 18.28716 | 2952 ft | 207 kts | 346° |
| 2026-04-25 10:37 | 53.09911 | 18.28418 | 2955 ft | 203 kts | 346° |
| 2026-04-25 10:37 | 53.11166 | 18.27646 | 2961 ft | 190 kts | 314° |
| 2026-04-25 10:37 | 53.11773 | 18.25806 | 2968 ft | 182 kts | 277° |
| 2026-04-25 10:37 | 53.11748 | 18.23741 | 2995 ft | 177 kts | 268° |
| 2026-04-25 10:38 | 53.11634 | 18.21692 | 2853 ft | 180 kts | 266° |
| 2026-04-25 10:38 | 53.11485 | 18.19635 | 2638 ft | 175 kts | 265° |
| 2026-04-25 10:38 | 53.11332 | 18.17654 | 2414 ft | 171 kts | 265° |
| 2026-04-25 10:38 | 53.11177 | 18.15714 | 2186 ft | 165 kts | 265° |
| 2026-04-25 10:39 | 53.11023 | 18.13849 | 1967 ft | 160 kts | 265° |
| 2026-04-25 10:39 | 53.10875 | 18.12066 | 1777 ft | 141 kts | 265° |
| 2026-04-25 10:39 | 53.10751 | 18.10569 | 1566 ft | 128 kts | 266° |
| 2026-04-25 10:39 | 53.10632 | 18.09144 | 1390 ft | 117 kts | 265° |
| 2026-04-25 10:40 | 53.10522 | 18.07815 | 1243 ft | 117 kts | 265° |
| 2026-04-25 10:40 | 53.10408 | 18.06446 | 1085 ft | 119 kts | 265° |
| 2026-04-25 10:40 | 53.10297 | 18.05115 | 925 ft | 114 kts | 266° |
| 2026-04-25 10:40 | 53.10190 | 18.03834 | 775 ft | 114 kts | 265° |
| 2026-04-25 10:41 | 53.10072 | 18.02382 | 895 ft | 136 kts | 265° |
| 2026-04-25 10:41 | 53.09935 | 18.00809 | 1604 ft | 146 kts | 265° |
| 2026-04-25 10:41 | 53.09779 | 17.98930 | 1909 ft | 180 kts | 263° |
| 2026-04-25 10:41 | 53.09616 | 17.96812 | 2168 ft | 188 kts | 258° |
| 2026-04-25 10:42 | 53.09264 | 17.94694 | 2435 ft | 191 kts | 269° |
| 2026-04-25 10:42 | 53.09184 | 17.92448 | 2699 ft | 195 kts | 267° |